sensor_id;sensor_type;location;lat;lon;timestamp;pressure;altitude;pressure_sealevel;temperature;humidity
67373;BME280;54257;54.496;18.412;2023-04-09T00:02:24;100775.63;;;7.57;85.16
67373;BME280;54257;54.496;18.412;2023-04-09T00:04:55;100772.98;;;7.51;85.01
67373;BME280;54257;54.496;18.412;2023-04-09T00:07:23;100768.36;;;7.47;85.45
67373;BME280;54257;54.496;18.412;2023-04-09T00:09:50;100771.31;;;7.48;85.85
67373;BME280;54257;54.496;18.412;2023-04-09T00:12:17;100769.02;;;7.46;85.66
67373;BME280;54257;54.496;18.412;2023-04-09T00:14:50;100770.35;;;7.46;85.76
67373;BME280;54257;54.496;18.412;2023-04-09T00:17:17;100773.08;;;7.45;85.92
67373;BME280;54257;54.496;18.412;2023-04-09T00:19:44;100774.89;;;7.44;86.02
67373;BME280;54257;54.496;18.412;2023-04-09T00:22:13;100770.66;;;7.44;86.17
67373;BME280;54257;54.496;18.412;2023-04-09T00:24:41;100768.68;;;7.46;86.41
67373;BME280;54257;54.496;18.412;2023-04-09T00:27:08;100768.48;;;7.45;86.21
67373;BME280;54257;54.496;18.412;2023-04-09T00:29:35;100765.38;;;7.44;86.05
67373;BME280;54257;54.496;18.412;2023-04-09T00:32:02;100772.90;;;7.41;85.99
67373;BME280;54257;54.496;18.412;2023-04-09T00:34:32;100773.64;;;7.39;86.17
67373;BME280;54257;54.496;18.412;2023-04-09T00:36:59;100768.30;;;7.37;86.16
67373;BME280;54257;54.496;18.412;2023-04-09T00:39:26;100762.49;;;7.32;86.21
67373;BME280;54257;54.496;18.412;2023-04-09T00:41:58;100763.91;;;7.34;86.49
67373;BME280;54257;54.496;18.412;2023-04-09T00:44:25;100761.73;;;7.34;86.66
67373;BME280;54257;54.496;18.412;2023-04-09T00:46:54;100759.05;;;7.35;86.71
67373;BME280;54257;54.496;18.412;2023-04-09T00:49:24;100757.84;;;7.35;86.61
67373;BME280;54257;54.496;18.412;2023-04-09T00:51:52;100758.48;;;7.34;86.65
67373;BME280;54257;54.496;18.412;2023-04-09T00:54:19;100761.56;;;7.30;86.60
67373;BME280;54257;54.496;18.412;2023-04-09T00:56:46;100762.48;;;7.28;86.52
67373;BME280;54257;54.496;18.412;2023-04-09T00:59:14;100762.57;;;7.22;86.32
67373;BME280;54257;54.496;18.412;2023-04-09T01:01:49;100759.80;;;7.17;86.21
67373;BME280;54257;54.496;18.412;2023-04-09T01:04:16;100759.70;;;7.11;86.18
67373;BME280;54257;54.496;18.412;2023-04-09T01:06:49;100757.77;;;7.06;86.24
67373;BME280;54257;54.496;18.412;2023-04-09T01:23:10;100755.97;;;6.84;87.04
67373;BME280;54257;54.496;18.412;2023-04-09T01:25:59;100757.59;;;6.83;87.11
67373;BME280;54257;54.496;18.412;2023-04-09T01:28:38;100755.69;;;6.82;87.23
67373;BME280;54257;54.496;18.412;2023-04-09T01:31:12;100760.27;;;6.82;87.36
67373;BME280;54257;54.496;18.412;2023-04-09T01:33:41;100758.62;;;6.79;87.09
67373;BME280;54257;54.496;18.412;2023-04-09T01:36:08;100764.30;;;6.73;87.10
67373;BME280;54257;54.496;18.412;2023-04-09T01:38:39;100762.93;;;6.72;87.34
67373;BME280;54257;54.496;18.412;2023-04-09T01:41:11;100764.60;;;6.68;87.07
67373;BME280;54257;54.496;18.412;2023-04-09T01:43:40;100765.02;;;6.62;87.08
67373;BME280;54257;54.496;18.412;2023-04-09T01:46:12;100767.55;;;6.58;87.39
67373;BME280;54257;54.496;18.412;2023-04-09T01:48:40;100768.45;;;6.56;87.29
67373;BME280;54257;54.496;18.412;2023-04-09T01:51:08;100770.09;;;6.55;87.55
67373;BME280;54257;54.496;18.412;2023-04-09T01:53:35;100765.77;;;6.53;87.45
67373;BME280;54257;54.496;18.412;2023-04-09T01:56:02;100765.27;;;6.49;87.39
67373;BME280;54257;54.496;18.412;2023-04-09T01:58:30;100765.92;;;6.49;87.47
67373;BME280;54257;54.496;18.412;2023-04-09T02:01:13;100766.61;;;6.45;87.31
67373;BME280;54257;54.496;18.412;2023-04-09T02:03:50;100765.63;;;6.38;87.29
67373;BME280;54257;54.496;18.412;2023-04-09T02:06:39;100766.16;;;6.35;87.55
67373;BME280;54257;54.496;18.412;2023-04-09T02:09:10;100765.55;;;6.33;87.70
67373;BME280;54257;54.496;18.412;2023-04-09T02:11:40;100767.93;;;6.30;87.60
67373;BME280;54257;54.496;18.412;2023-04-09T02:14:08;100763.96;;;6.25;87.62
67373;BME280;54257;54.496;18.412;2023-04-09T02:16:38;100767.46;;;6.24;87.79
67373;BME280;54257;54.496;18.412;2023-04-09T02:19:07;100765.98;;;6.24;88.04
67373;BME280;54257;54.496;18.412;2023-04-09T02:21:34;100765.15;;;6.25;88.13
67373;BME280;54257;54.496;18.412;2023-04-09T02:24:01;100765.60;;;6.24;87.98
67373;BME280;54257;54.496;18.412;2023-04-09T02:26:32;100761.75;;;6.21;87.78
67373;BME280;54257;54.496;18.412;2023-04-09T02:28:59;100759.02;;;6.16;87.90
67373;BME280;54257;54.496;18.412;2023-04-09T02:31:26;100758.68;;;6.13;87.98
67373;BME280;54257;54.496;18.412;2023-04-09T02:33:54;100759.11;;;6.11;88.07
67373;BME280;54257;54.496;18.412;2023-04-09T02:36:21;100756.35;;;6.10;88.37
67373;BME280;54257;54.496;18.412;2023-04-09T02:38:48;100751.28;;;6.11;88.47
67373;BME280;54257;54.496;18.412;2023-04-09T02:41:16;100749.75;;;6.11;88.43
67373;BME280;54257;54.496;18.412;2023-04-09T02:43:43;100749.06;;;6.11;88.37
67373;BME280;54257;54.496;18.412;2023-04-09T02:46:10;100746.48;;;6.10;88.47
67373;BME280;54257;54.496;18.412;2023-04-09T02:48:37;100746.18;;;6.11;88.45
67373;BME280;54257;54.496;18.412;2023-04-09T02:51:05;100747.20;;;6.11;88.47
67373;BME280;54257;54.496;18.412;2023-04-09T02:53:37;100748.11;;;6.12;88.47
67373;BME280;54257;54.496;18.412;2023-04-09T02:56:06;100750.15;;;6.12;88.60
67373;BME280;54257;54.496;18.412;2023-04-09T02:58:34;100751.25;;;6.14;88.68
67373;BME280;54257;54.496;18.412;2023-04-09T03:01:02;100752.48;;;6.15;88.50
67373;BME280;54257;54.496;18.412;2023-04-09T03:03:30;100757.00;;;6.14;88.38
67373;BME280;54257;54.496;18.412;2023-04-09T03:05:57;100754.80;;;6.14;88.39
67373;BME280;54257;54.496;18.412;2023-04-09T03:08:26;100753.87;;;6.16;88.44
67373;BME280;54257;54.496;18.412;2023-04-09T03:10:53;100754.28;;;6.17;88.57
67373;BME280;54257;54.496;18.412;2023-04-09T03:13:21;100757.59;;;6.19;88.65
67373;BME280;54257;54.496;18.412;2023-04-09T03:15:51;100757.02;;;6.21;88.56
67373;BME280;54257;54.496;18.412;2023-04-09T03:18:22;100754.17;;;6.22;88.49
67373;BME280;54257;54.496;18.412;2023-04-09T03:20:49;100756.55;;;6.23;88.48
67373;BME280;54257;54.496;18.412;2023-04-09T03:23:16;100750.17;;;6.24;88.39
67373;BME280;54257;54.496;18.412;2023-04-09T03:25:43;100749.52;;;6.24;88.31
67373;BME280;54257;54.496;18.412;2023-04-09T03:28:12;100753.77;;;6.25;88.24
67373;BME280;54257;54.496;18.412;2023-04-09T03:30:40;100750.77;;;6.26;88.30
67373;BME280;54257;54.496;18.412;2023-04-09T03:33:06;100752.40;;;6.28;88.42
67373;BME280;54257;54.496;18.412;2023-04-09T03:35:34;100750.95;;;6.29;88.20
67373;BME280;54257;54.496;18.412;2023-04-09T03:38:01;100750.08;;;6.29;88.08
67373;BME280;54257;54.496;18.412;2023-04-09T03:40:28;100752.27;;;6.28;87.85
67373;BME280;54257;54.496;18.412;2023-04-09T03:42:55;100750.62;;;6.26;87.62
67373;BME280;54257;54.496;18.412;2023-04-09T03:45:22;100750.39;;;6.25;87.74
67373;BME280;54257;54.496;18.412;2023-04-09T03:47:49;100755.02;;;6.26;87.75
67373;BME280;54257;54.496;18.412;2023-04-09T03:50:16;100753.04;;;6.24;87.47
67373;BME280;54257;54.496;18.412;2023-04-09T03:52:43;100752.99;;;6.22;87.59
67373;BME280;54257;54.496;18.412;2023-04-09T03:55:10;100752.34;;;6.23;87.50
67373;BME280;54257;54.496;18.412;2023-04-09T03:57:39;100751.23;;;6.21;87.49
67373;BME280;54257;54.496;18.412;2023-04-09T04:00:07;100751.36;;;6.20;87.39
67373;BME280;54257;54.496;18.412;2023-04-09T04:02:34;100752.28;;;6.18;87.35
67373;BME280;54257;54.496;18.412;2023-04-09T04:05:04;100754.08;;;6.16;87.43
67373;BME280;54257;54.496;18.412;2023-04-09T04:07:31;100756.00;;;6.14;87.26
67373;BME280;54257;54.496;18.412;2023-04-09T04:10:06;100756.80;;;6.13;87.39
67373;BME280;54257;54.496;18.412;2023-04-09T04:12:34;100762.55;;;6.12;87.33
67373;BME280;54257;54.496;18.412;2023-04-09T04:15:01;100764.45;;;6.10;87.13
67373;BME280;54257;54.496;18.412;2023-04-09T04:17:28;100761.65;;;6.08;87.15
67373;BME280;54257;54.496;18.412;2023-04-09T04:19:55;100762.38;;;6.05;86.99
67373;BME280;54257;54.496;18.412;2023-04-09T04:22:22;100763.13;;;6.00;86.78
67373;BME280;54257;54.496;18.412;2023-04-09T04:24:49;100767.23;;;5.97;86.74
67373;BME280;54257;54.496;18.412;2023-04-09T04:27:20;100768.81;;;5.95;86.82
67373;BME280;54257;54.496;18.412;2023-04-09T04:29:47;100766.91;;;5.91;86.70
67373;BME280;54257;54.496;18.412;2023-04-09T04:32:15;100767.89;;;5.86;86.56
67373;BME280;54257;54.496;18.412;2023-04-09T04:34:48;100766.73;;;5.84;86.60
67373;BME280;54257;54.496;18.412;2023-04-09T04:37:16;100769.14;;;5.81;86.65
67373;BME280;54257;54.496;18.412;2023-04-09T04:39:44;100770.42;;;5.76;86.51
67373;BME280;54257;54.496;18.412;2023-04-09T04:42:11;100771.02;;;5.75;86.57
67373;BME280;54257;54.496;18.412;2023-04-09T04:44:38;100770.73;;;5.72;86.60
67373;BME280;54257;54.496;18.412;2023-04-09T04:47:05;100770.47;;;5.70;86.71
67373;BME280;54257;54.496;18.412;2023-04-09T04:49:36;100770.06;;;5.69;86.79
67373;BME280;54257;54.496;18.412;2023-04-09T04:52:05;100769.31;;;5.68;86.71
67373;BME280;54257;54.496;18.412;2023-04-09T04:54:32;100768.95;;;5.67;86.90
67373;BME280;54257;54.496;18.412;2023-04-09T04:57:00;100770.39;;;5.65;86.55
67373;BME280;54257;54.496;18.412;2023-04-09T04:59:36;100771.50;;;5.60;86.37
67373;BME280;54257;54.496;18.412;2023-04-09T05:02:06;100771.72;;;5.54;86.35
67373;BME280;54257;54.496;18.412;2023-04-09T05:04:33;100779.41;;;5.52;86.35
67373;BME280;54257;54.496;18.412;2023-04-09T05:07:01;100780.56;;;5.48;86.27
67373;BME280;54257;54.496;18.412;2023-04-09T05:09:29;100778.46;;;5.40;86.36
67373;BME280;54257;54.496;18.412;2023-04-09T05:11:57;100784.57;;;5.44;86.99
67373;BME280;54257;54.496;18.412;2023-04-09T05:14:25;100783.96;;;5.45;87.17
67373;BME280;54257;54.496;18.412;2023-04-09T05:16:52;100782.94;;;5.45;86.95
67373;BME280;54257;54.496;18.412;2023-04-09T05:19:19;100782.60;;;5.45;86.89
67373;BME280;54257;54.496;18.412;2023-04-09T05:21:47;100785.27;;;5.44;86.76
67373;BME280;54257;54.496;18.412;2023-04-09T05:24:14;100782.44;;;5.45;86.92
67373;BME280;54257;54.496;18.412;2023-04-09T05:26:41;100781.84;;;5.44;86.86
67373;BME280;54257;54.496;18.412;2023-04-09T05:29:08;100784.59;;;5.44;86.95
67373;BME280;54257;54.496;18.412;2023-04-09T05:31:36;100778.11;;;5.44;86.92
67373;BME280;54257;54.496;18.412;2023-04-09T05:34:04;100781.23;;;5.45;87.04
67373;BME280;54257;54.496;18.412;2023-04-09T05:36:34;100780.61;;;5.43;86.84
67373;BME280;54257;54.496;18.412;2023-04-09T05:39:03;100782.24;;;5.38;86.84
67373;BME280;54257;54.496;18.412;2023-04-09T05:41:35;100782.14;;;5.39;87.02
67373;BME280;54257;54.496;18.412;2023-04-09T05:44:05;100782.61;;;5.38;87.02
67373;BME280;54257;54.496;18.412;2023-04-09T05:46:32;100776.58;;;5.37;86.87
67373;BME280;54257;54.496;18.412;2023-04-09T05:49:00;100776.48;;;5.34;86.99
67373;BME280;54257;54.496;18.412;2023-04-09T05:51:27;100776.37;;;5.32;87.03
67373;BME280;54257;54.496;18.412;2023-04-09T05:53:55;100775.64;;;5.31;87.08
67373;BME280;54257;54.496;18.412;2023-04-09T05:56:33;100776.50;;;5.31;87.35
67373;BME280;54257;54.496;18.412;2023-04-09T05:59:00;100775.71;;;5.33;87.23
67373;BME280;54257;54.496;18.412;2023-04-09T06:01:27;100775.00;;;5.36;87.47
67373;BME280;54257;54.496;18.412;2023-04-09T06:03:55;100773.70;;;5.40;87.59
67373;BME280;54257;54.496;18.412;2023-04-09T06:06:25;100774.84;;;5.46;88.08
67373;BME280;54257;54.496;18.412;2023-04-09T06:08:58;100772.98;;;5.52;88.35
67373;BME280;54257;54.496;18.412;2023-04-09T06:11:28;100772.03;;;5.64;88.87
67373;BME280;54257;54.496;18.412;2023-04-09T06:14:08;100773.77;;;5.79;89.26
67373;BME280;54257;54.496;18.412;2023-04-09T06:16:38;100770.88;;;5.96;89.77
67373;BME280;54257;54.496;18.412;2023-04-09T06:19:09;100768.18;;;6.13;89.59
67373;BME280;54257;54.496;18.412;2023-04-09T06:21:37;100767.19;;;6.32;90.08
67373;BME280;54257;54.496;18.412;2023-04-09T06:24:07;100774.73;;;6.63;91.42
67373;BME280;54257;54.496;18.412;2023-04-09T06:26:34;100772.61;;;6.95;91.29
67373;BME280;54257;54.496;18.412;2023-04-09T06:29:04;100767.33;;;7.26;90.56
67373;BME280;54257;54.496;18.412;2023-04-09T06:31:31;100764.00;;;7.56;89.90
67373;BME280;54257;54.496;18.412;2023-04-09T06:33:59;100760.94;;;7.81;88.31
67373;BME280;54257;54.496;18.412;2023-04-09T06:36:29;100763.43;;;8.13;88.42
67373;BME280;54257;54.496;18.412;2023-04-09T06:38:56;100762.42;;;8.53;87.91
67373;BME280;54257;54.496;18.412;2023-04-09T06:41:27;100758.01;;;8.90;87.30
67373;BME280;54257;54.496;18.412;2023-04-09T06:43:58;100763.11;;;9.33;86.43
67373;BME280;54257;54.496;18.412;2023-04-09T06:46:34;100761.50;;;9.71;84.70
67373;BME280;54257;54.496;18.412;2023-04-09T06:49:07;100759.08;;;10.02;83.19
67373;BME280;54257;54.496;18.412;2023-04-09T06:51:34;100761.61;;;10.33;82.21
67373;BME280;54257;54.496;18.412;2023-04-09T06:54:02;100762.42;;;10.48;79.16
67373;BME280;54257;54.496;18.412;2023-04-09T06:56:29;100766.55;;;10.60;77.92
67373;BME280;54257;54.496;18.412;2023-04-09T06:58:57;100764.71;;;10.74;77.07
67373;BME280;54257;54.496;18.412;2023-04-09T07:01:26;100767.55;;;10.90;77.15
67373;BME280;54257;54.496;18.412;2023-04-09T07:03:53;100765.89;;;11.16;76.82
67373;BME280;54257;54.496;18.412;2023-04-09T07:06:21;100762.98;;;11.35;74.69
67373;BME280;54257;54.496;18.412;2023-04-09T07:08:48;100766.86;;;11.59;75.05
67373;BME280;54257;54.496;18.412;2023-04-09T07:11:18;100769.92;;;11.85;72.39
67373;BME280;54257;54.496;18.412;2023-04-09T07:13:45;100769.06;;;11.91;71.55
67373;BME280;54257;54.496;18.412;2023-04-09T07:16:13;100771.44;;;11.97;71.27
67373;BME280;54257;54.496;18.412;2023-04-09T07:18:43;100778.55;;;12.01;70.99
67373;BME280;54257;54.496;18.412;2023-04-09T07:21:11;100777.52;;;12.01;69.94
67373;BME280;54257;54.496;18.412;2023-04-09T07:23:38;100779.92;;;12.02;69.52
67373;BME280;54257;54.496;18.412;2023-04-09T07:26:05;100782.49;;;12.01;69.30
67373;BME280;54257;54.496;18.412;2023-04-09T07:28:33;100782.02;;;12.03;69.11
67373;BME280;54257;54.496;18.412;2023-04-09T07:31:01;100784.77;;;12.04;68.98
67373;BME280;54257;54.496;18.412;2023-04-09T07:33:33;100785.66;;;12.05;68.40
67373;BME280;54257;54.496;18.412;2023-04-09T07:36:00;100787.65;;;12.03;68.00
67373;BME280;54257;54.496;18.412;2023-04-09T07:38:28;100788.84;;;12.02;67.84
67373;BME280;54257;54.496;18.412;2023-04-09T07:40:55;100786.11;;;12.03;67.68
67373;BME280;54257;54.496;18.412;2023-04-09T07:43:23;100788.98;;;12.00;67.06
67373;BME280;54257;54.496;18.412;2023-04-09T07:45:50;100788.09;;;11.99;66.95
67373;BME280;54257;54.496;18.412;2023-04-09T07:48:17;100789.95;;;11.98;66.54
67373;BME280;54257;54.496;18.412;2023-04-09T07:50:44;100792.66;;;11.97;66.79
67373;BME280;54257;54.496;18.412;2023-04-09T07:53:11;100798.02;;;11.99;67.08
67373;BME280;54257;54.496;18.412;2023-04-09T07:55:42;100798.98;;;12.04;66.83
67373;BME280;54257;54.496;18.412;2023-04-09T07:58:10;100801.64;;;12.07;66.31
67373;BME280;54257;54.496;18.412;2023-04-09T08:00:37;100793.88;;;12.05;65.25
67373;BME280;54257;54.496;18.412;2023-04-09T08:03:04;100795.61;;;11.92;64.74
67373;BME280;54257;54.496;18.412;2023-04-09T08:05:32;100789.47;;;11.86;65.15
67373;BME280;54257;54.496;18.412;2023-04-09T08:07:59;100795.91;;;11.83;65.47
67373;BME280;54257;54.496;18.412;2023-04-09T08:10:26;100793.16;;;11.83;65.87
67373;BME280;54257;54.496;18.412;2023-04-09T08:12:53;100796.50;;;11.93;66.19
67373;BME280;54257;54.496;18.412;2023-04-09T08:15:21;100796.05;;;12.03;66.22
67373;BME280;54257;54.496;18.412;2023-04-09T08:17:48;100795.73;;;12.11;65.87
67373;BME280;54257;54.496;18.412;2023-04-09T08:20:15;100796.65;;;12.21;65.89
67373;BME280;54257;54.496;18.412;2023-04-09T08:22:43;100796.36;;;12.31;66.37
67373;BME280;54257;54.496;18.412;2023-04-09T08:25:11;100800.73;;;12.49;66.72
67373;BME280;54257;54.496;18.412;2023-04-09T08:27:38;100799.59;;;12.68;66.41
67373;BME280;54257;54.496;18.412;2023-04-09T08:30:06;100794.62;;;12.84;65.40
67373;BME280;54257;54.496;18.412;2023-04-09T08:32:33;100796.46;;;12.90;63.06
67373;BME280;54257;54.496;18.412;2023-04-09T08:35:01;100798.91;;;13.01;64.08
67373;BME280;54257;54.496;18.412;2023-04-09T08:37:28;100800.88;;;13.13;63.69
67373;BME280;54257;54.496;18.412;2023-04-09T08:39:55;100798.95;;;13.28;62.88
67373;BME280;54257;54.496;18.412;2023-04-09T08:42:24;100795.20;;;13.57;63.19
67373;BME280;54257;54.496;18.412;2023-04-09T08:44:52;100795.74;;;13.68;60.81
67373;BME280;54257;54.496;18.412;2023-04-09T08:47:19;100798.91;;;13.73;60.77
67373;BME280;54257;54.496;18.412;2023-04-09T08:49:50;100797.42;;;13.85;61.52
67373;BME280;54257;54.496;18.412;2023-04-09T08:52:17;100793.48;;;13.96;61.06
67373;BME280;54257;54.496;18.412;2023-04-09T08:54:49;100792.55;;;14.13;60.41
67373;BME280;54257;54.496;18.412;2023-04-09T08:57:17;100793.40;;;14.46;60.03
67373;BME280;54257;54.496;18.412;2023-04-09T08:59:44;100792.95;;;14.63;57.81
67373;BME280;54257;54.496;18.412;2023-04-09T09:02:11;100796.02;;;14.62;57.13
67373;BME280;54257;54.496;18.412;2023-04-09T09:04:48;100797.44;;;14.64;57.48
67373;BME280;54257;54.496;18.412;2023-04-09T09:07:18;100796.02;;;14.87;57.88
67373;BME280;54257;54.496;18.412;2023-04-09T09:09:59;100797.88;;;15.28;58.35
67373;BME280;54257;54.496;18.412;2023-04-09T09:15:03;100793.93;;;16.21;55.88
67373;BME280;54257;54.496;18.412;2023-04-09T09:17:52;100795.84;;;16.51;55.35
67373;BME280;54257;54.496;18.412;2023-04-09T09:20:20;100793.72;;;16.68;53.95
67373;BME280;54257;54.496;18.412;2023-04-09T09:22:52;100798.87;;;16.65;51.86
67373;BME280;54257;54.496;18.412;2023-04-09T09:25:20;100802.20;;;16.47;51.08
67373;BME280;54257;54.496;18.412;2023-04-09T09:27:52;100801.54;;;16.24;50.24
67373;BME280;54257;54.496;18.412;2023-04-09T09:30:25;100801.98;;;16.14;51.37
67373;BME280;54257;54.496;18.412;2023-04-09T09:33:04;100802.77;;;16.04;51.64
67373;BME280;54257;54.496;18.412;2023-04-09T09:35:51;100804.08;;;15.95;51.46
67373;BME280;54257;54.496;18.412;2023-04-09T09:38:22;100808.08;;;15.82;50.17
67373;BME280;54257;54.496;18.412;2023-04-09T09:40:49;100809.88;;;15.55;48.64
67373;BME280;54257;54.496;18.412;2023-04-09T09:43:18;100809.05;;;15.26;48.76
67373;BME280;54257;54.496;18.412;2023-04-09T09:45:46;100806.65;;;14.97;48.54
67373;BME280;54257;54.496;18.412;2023-04-09T09:48:14;100811.69;;;14.61;48.67
67373;BME280;54257;54.496;18.412;2023-04-09T09:50:41;100808.86;;;14.35;49.53
67373;BME280;54257;54.496;18.412;2023-04-09T09:53:11;100802.59;;;14.18;50.35
67373;BME280;54257;54.496;18.412;2023-04-09T09:55:39;100803.20;;;14.14;51.21
67373;BME280;54257;54.496;18.412;2023-04-09T09:58:16;100795.57;;;14.09;50.67
67373;BME280;54257;54.496;18.412;2023-04-09T10:00:48;100794.02;;;13.98;50.34
67373;BME280;54257;54.496;18.412;2023-04-09T10:03:26;100794.27;;;13.92;51.01
67373;BME280;54257;54.496;18.412;2023-04-09T10:05:57;100792.92;;;13.84;50.53
67373;BME280;54257;54.496;18.412;2023-04-09T10:08:27;100796.99;;;13.80;51.23
67373;BME280;54257;54.496;18.412;2023-04-09T10:10:56;100797.24;;;13.85;51.58
67373;BME280;54257;54.496;18.412;2023-04-09T10:13:29;100796.64;;;13.91;52.03
67373;BME280;54257;54.496;18.412;2023-04-09T10:16:00;100798.86;;;13.99;52.62
67373;BME280;54257;54.496;18.412;2023-04-09T10:18:30;100795.38;;;14.08;52.76
67373;BME280;54257;54.496;18.412;2023-04-09T10:21:06;100799.16;;;14.18;52.68
67373;BME280;54257;54.496;18.412;2023-04-09T10:23:41;100800.68;;;14.27;52.36
67373;BME280;54257;54.496;18.412;2023-04-09T10:26:12;100795.08;;;14.33;51.10
67373;BME280;54257;54.496;18.412;2023-04-09T10:28:42;100794.67;;;14.40;51.29
67373;BME280;54257;54.496;18.412;2023-04-09T10:31:09;100797.16;;;14.56;51.29
67373;BME280;54257;54.496;18.412;2023-04-09T10:33:37;100796.00;;;14.71;51.03
67373;BME280;54257;54.496;18.412;2023-04-09T10:36:18;100794.67;;;14.89;50.97
67373;BME280;54257;54.496;18.412;2023-04-09T10:38:45;100792.74;;;15.00;49.80
67373;BME280;54257;54.496;18.412;2023-04-09T10:41:27;100788.67;;;15.20;50.78
67373;BME280;54257;54.496;18.412;2023-04-09T10:43:57;100789.02;;;15.54;49.25
67373;BME280;54257;54.496;18.412;2023-04-09T10:46:35;100789.47;;;15.80;47.82
67373;BME280;54257;54.496;18.412;2023-04-09T10:49:17;100791.73;;;16.06;47.17
67373;BME280;54257;54.496;18.412;2023-04-09T10:52:05;100791.83;;;16.15;45.09
67373;BME280;54257;54.496;18.412;2023-04-09T10:54:44;100794.46;;;16.24;46.43
67373;BME280;54257;54.496;18.412;2023-04-09T10:57:12;100795.25;;;16.39;46.96
67373;BME280;54257;54.496;18.412;2023-04-09T11:02:25;100794.39;;;16.68;44.89
67373;BME280;54257;54.496;18.412;2023-04-09T11:05:30;100795.45;;;16.69;43.78
67373;BME280;54257;54.496;18.412;2023-04-09T11:08:18;100796.08;;;16.61;43.58
67373;BME280;54257;54.496;18.412;2023-04-09T11:10:48;100798.13;;;16.57;44.09
67373;BME280;54257;54.496;18.412;2023-04-09T11:13:17;100799.09;;;16.47;43.99
67373;BME280;54257;54.496;18.412;2023-04-09T11:15:49;100799.40;;;16.41;44.11
67373;BME280;54257;54.496;18.412;2023-04-09T11:18:31;100803.33;;;16.34;44.02
67373;BME280;54257;54.496;18.412;2023-04-09T11:21:01;100797.94;;;16.27;44.57
67373;BME280;54257;54.496;18.412;2023-04-09T11:23:33;100800.73;;;16.34;44.71
67373;BME280;54257;54.496;18.412;2023-04-09T11:26:00;100799.73;;;16.38;44.59
67373;BME280;54257;54.496;18.412;2023-04-09T11:28:29;100801.14;;;16.42;43.99
67373;BME280;54257;54.496;18.412;2023-04-09T11:30:59;100804.06;;;16.43;44.67
67373;BME280;54257;54.496;18.412;2023-04-09T11:33:45;100808.61;;;16.51;45.24
67373;BME280;54257;54.496;18.412;2023-04-09T11:36:13;100806.92;;;16.57;44.77
67373;BME280;54257;54.496;18.412;2023-04-09T11:38:40;100808.00;;;16.65;44.88
67373;BME280;54257;54.496;18.412;2023-04-09T11:41:07;100811.52;;;16.70;44.20
67373;BME280;54257;54.496;18.412;2023-04-09T11:43:39;100815.48;;;16.46;42.71
67373;BME280;54257;54.496;18.412;2023-04-09T11:46:07;100814.48;;;16.27;44.11
67373;BME280;54257;54.496;18.412;2023-04-09T11:48:35;100815.86;;;16.27;44.35
67373;BME280;54257;54.496;18.412;2023-04-09T11:51:02;100814.25;;;16.18;43.59
67373;BME280;54257;54.496;18.412;2023-04-09T11:53:30;100813.02;;;16.14;44.74
67373;BME280;54257;54.496;18.412;2023-04-09T11:55:57;100811.50;;;16.19;45.35
67373;BME280;54257;54.496;18.412;2023-04-09T11:58:26;100812.52;;;16.19;44.18
67373;BME280;54257;54.496;18.412;2023-04-09T12:00:54;100809.96;;;16.21;44.14
67373;BME280;54257;54.496;18.412;2023-04-09T12:03:29;100810.58;;;16.11;44.86
67373;BME280;54257;54.496;18.412;2023-04-09T12:05:59;100810.55;;;16.08;45.10
67373;BME280;54257;54.496;18.412;2023-04-09T12:08:27;100810.20;;;16.07;45.88
67373;BME280;54257;54.496;18.412;2023-04-09T12:10:54;100815.89;;;16.07;45.35
67373;BME280;54257;54.496;18.412;2023-04-09T12:13:31;100813.05;;;15.97;45.78
67373;BME280;54257;54.496;18.412;2023-04-09T12:16:00;100812.02;;;15.96;45.77
67373;BME280;54257;54.496;18.412;2023-04-09T12:18:28;100804.14;;;16.03;46.16
67373;BME280;54257;54.496;18.412;2023-04-09T12:20:55;100807.67;;;16.15;46.70
67373;BME280;54257;54.496;18.412;2023-04-09T12:23:22;100811.02;;;16.25;45.50
67373;BME280;54257;54.496;18.412;2023-04-09T12:25:53;100815.57;;;16.34;45.95
67373;BME280;54257;54.496;18.412;2023-04-09T12:28:20;100814.50;;;16.55;45.76
67373;BME280;54257;54.496;18.412;2023-04-09T12:30:52;100811.33;;;16.71;45.03
67373;BME280;54257;54.496;18.412;2023-04-09T12:33:20;100809.69;;;16.85;44.90
67373;BME280;54257;54.496;18.412;2023-04-09T12:35:47;100807.95;;;16.85;43.49
67373;BME280;54257;54.496;18.412;2023-04-09T12:38:14;100808.80;;;16.80;43.70
67373;BME280;54257;54.496;18.412;2023-04-09T12:40:41;100807.80;;;16.87;44.65
67373;BME280;54257;54.496;18.412;2023-04-09T12:43:12;100810.11;;;17.05;44.94
67373;BME280;54257;54.496;18.412;2023-04-09T12:45:39;100804.67;;;17.31;45.06
67373;BME280;54257;54.496;18.412;2023-04-09T12:48:06;100801.77;;;17.48;43.48
67373;BME280;54257;54.496;18.412;2023-04-09T12:50:33;100802.45;;;17.47;43.57
67373;BME280;54257;54.496;18.412;2023-04-09T12:53:04;100803.35;;;17.59;44.04
67373;BME280;54257;54.496;18.412;2023-04-09T12:55:32;100803.70;;;17.61;44.22
67373;BME280;54257;54.496;18.412;2023-04-09T12:58:00;100804.57;;;17.59;43.73
67373;BME280;54257;54.496;18.412;2023-04-09T13:00:28;100806.45;;;17.47;42.65
67373;BME280;54257;54.496;18.412;2023-04-09T13:02:57;100805.18;;;17.27;44.30
67373;BME280;54257;54.496;18.412;2023-04-09T13:05:27;100809.86;;;17.28;44.72
67373;BME280;54257;54.496;18.412;2023-04-09T13:07:54;100809.52;;;17.28;43.60
67373;BME280;54257;54.496;18.412;2023-04-09T13:10:21;100813.45;;;17.20;43.04
67373;BME280;54257;54.496;18.412;2023-04-09T13:12:48;100808.56;;;17.09;43.55
67373;BME280;54257;54.496;18.412;2023-04-09T13:15:15;100807.90;;;17.11;44.15
67373;BME280;54257;54.496;18.412;2023-04-09T13:17:43;100808.43;;;17.15;44.32